createdAt,value
2017-08-23T00:00:12.104Z,9.70
2017-08-23T00:02:40.536Z,10.33
2017-08-23T00:05:08.045Z,9.63
2017-08-23T00:07:35.637Z,11.13
2017-08-23T00:10:03.195Z,10.30
2017-08-23T00:12:30.768Z,10.70
2017-08-23T00:14:58.287Z,10.53
2017-08-23T00:17:26.585Z,11.53
2017-08-23T00:19:55.228Z,10.43
2017-08-23T00:22:22.749Z,9.93
2017-08-23T00:24:50.265Z,9.40
2017-08-23T00:27:18.011Z,11.00
2017-08-23T00:29:45.545Z,9.70
2017-08-23T00:32:13.795Z,10.02
2017-08-23T00:34:41.326Z,9.90
2017-08-23T00:37:09.594Z,9.90
2017-08-23T00:39:37.822Z,10.40
2017-08-23T00:42:05.331Z,11.48
2017-08-23T00:44:32.839Z,11.23
2017-08-23T00:47:00.342Z,10.80
2017-08-23T00:49:27.847Z,11.03
2017-08-23T00:51:55.517Z,12.17
2017-08-23T00:54:23.067Z,11.37
2017-08-23T00:56:50.587Z,10.90
2017-08-23T00:59:18.115Z,11.20
2017-08-23T01:01:46.153Z,11.04
2017-08-23T01:04:13.706Z,10.63
2017-08-23T01:06:41.287Z,10.18
2017-08-23T01:09:09.023Z,10.23
2017-08-23T01:11:36.541Z,10.53
2017-08-23T01:14:12.861Z,12.02
2017-08-23T01:16:41.123Z,9.45
2017-08-23T01:19:08.667Z,10.93
2017-08-23T01:21:36.175Z,10.73
2017-08-23T01:24:03.725Z,10.70
2017-08-23T01:26:31.258Z,10.33
2017-08-23T01:28:58.812Z,11.73
2017-08-23T01:31:26.347Z,11.73
2017-08-23T01:33:55.558Z,11.57
2017-08-23T01:36:23.096Z,11.45
2017-08-23T01:38:51.409Z,11.05
2017-08-23T01:41:19.479Z,11.15
2017-08-23T01:43:46.983Z,11.12
2017-08-23T01:46:19.002Z,10.83
2017-08-23T01:48:46.710Z,11.40
2017-08-23T01:51:14.368Z,11.63
2017-08-23T01:53:41.992Z,11.00
2017-08-23T01:56:13.134Z,9.93
2017-08-23T01:58:40.643Z,11.40
2017-08-23T02:01:09.860Z,13.65
2017-08-23T02:03:37.563Z,9.90
2017-08-23T02:06:05.083Z,10.07
2017-08-23T02:08:32.595Z,10.43
2017-08-23T02:11:00.110Z,10.50
2017-08-23T02:13:29.620Z,10.40
2017-08-23T02:15:57.136Z,10.33
2017-08-23T02:18:24.642Z,12.17
2017-08-23T02:20:52.995Z,10.95
2017-08-23T02:23:20.940Z,11.13
2017-08-23T02:25:48.446Z,9.48
2017-08-23T02:28:15.946Z,9.90
2017-08-23T02:30:43.915Z,9.05
2017-08-23T02:33:12.369Z,9.90
2017-08-23T02:35:39.900Z,10.60
2017-08-23T02:38:07.403Z,10.90
2017-08-23T02:40:34.920Z,11.53
2017-08-23T02:43:02.463Z,12.13
2017-08-23T02:45:29.988Z,10.27
2017-08-23T02:47:58.256Z,11.10
2017-08-23T02:50:26.135Z,11.43
2017-08-23T02:52:53.652Z,10.00
2017-08-23T02:55:21.255Z,11.70
2017-08-23T02:57:52.089Z,12.20
2017-08-23T03:00:20.554Z,10.23
2017-08-23T03:02:48.131Z,11.37
2017-08-23T03:05:15.635Z,12.53
2017-08-23T03:07:43.153Z,11.97
2017-08-23T03:10:10.707Z,13.60
2017-08-23T03:12:38.223Z,12.37
2017-08-23T03:15:06.164Z,11.68
2017-08-23T03:17:34.306Z,12.57
2017-08-23T03:20:02.635Z,12.10
2017-08-23T03:22:30.164Z,12.37
2017-08-23T03:24:59.370Z,11.15
2017-08-23T03:27:26.959Z,11.80
2017-08-23T03:29:54.724Z,11.43
2017-08-23T03:32:22.232Z,11.63
2017-08-23T03:34:50.095Z,11.90
2017-08-23T03:37:18.142Z,11.70
2017-08-23T03:39:45.679Z,12.30
2017-08-23T03:42:13.208Z,12.07
2017-08-23T03:44:43.359Z,10.77
2017-08-23T03:47:11.380Z,11.23
2017-08-23T03:49:38.885Z,11.00
2017-08-23T03:52:06.413Z,11.35
2017-08-23T03:54:34.691Z,11.70
2017-08-23T03:57:03.109Z,13.18
2017-08-23T03:59:34.255Z,9.90
2017-08-23T04:02:02.596Z,11.23
2017-08-23T04:04:30.115Z,10.60
2017-08-23T04:06:57.619Z,11.40
2017-08-23T04:09:25.175Z,10.23
2017-08-23T04:11:52.686Z,10.07
2017-08-23T04:14:20.190Z,10.27
2017-08-23T04:16:47.723Z,10.90
2017-08-23T04:19:16.027Z,10.23
2017-08-23T04:21:43.528Z,9.17
2017-08-23T04:24:11.040Z,13.03
2017-08-23T04:26:38.639Z,11.02
2017-08-23T04:29:06.159Z,10.65
2017-08-23T04:31:33.680Z,13.13
2017-08-23T04:34:01.284Z,10.85
2017-08-23T04:36:30.098Z,13.20
2017-08-23T04:38:57.612Z,11.10
2017-08-23T04:41:25.177Z,11.17
2017-08-23T04:43:52.691Z,10.48
2017-08-23T04:46:20.208Z,12.43
2017-08-23T04:48:49.003Z,11.98
2017-08-23T04:51:16.523Z,10.53
2017-08-23T04:53:44.044Z,10.73
2017-08-23T04:56:11.632Z,9.63
2017-08-23T04:58:39.139Z,9.97
2017-08-23T05:01:07.580Z,9.20
2017-08-23T05:03:35.487Z,10.57
2017-08-23T05:06:03.098Z,8.40
2017-08-23T05:08:30.657Z,8.07
2017-08-23T05:10:58.175Z,8.73
2017-08-23T05:13:25.679Z,9.27
2017-08-23T05:15:53.389Z,8.27
2017-08-23T05:18:21.584Z,7.80
2017-08-23T05:20:50.115Z,6.93
2017-08-23T05:23:17.633Z,8.13
2017-08-23T05:25:45.989Z,7.40
2017-08-23T05:28:13.535Z,8.80
2017-08-23T05:30:44.425Z,7.47
2017-08-23T05:33:11.923Z,7.70
2017-08-23T05:35:39.482Z,7.60
2017-08-23T05:38:07.031Z,6.93
2017-08-23T05:40:35.240Z,7.70
2017-08-23T05:43:02.743Z,7.63
2017-08-23T05:45:33.964Z,8.50
2017-08-23T05:48:01.469Z,7.53
2017-08-23T05:53:14.351Z,8.97
2017-08-23T05:55:43.472Z,6.90
2017-08-23T05:58:11.688Z,7.70
2017-08-23T06:00:39.205Z,7.57
2017-08-23T06:03:08.335Z,8.07
2017-08-23T06:05:37.522Z,7.23
2017-08-23T06:08:05.313Z,7.65
2017-08-23T06:10:32.848Z,8.90
2017-08-23T06:13:00.356Z,10.38
2017-08-23T06:15:32.596Z,9.57
2017-08-23T06:18:00.128Z,9.60
2017-08-23T06:20:28.396Z,10.27
2017-08-23T06:22:55.899Z,9.50
2017-08-23T06:25:23.434Z,10.40
2017-08-23T06:27:52.717Z,10.68
2017-08-23T06:30:24.139Z,10.40
2017-08-23T06:32:52.403Z,11.38
2017-08-23T06:35:19.983Z,13.40
2017-08-23T06:37:47.483Z,12.60
2017-08-23T06:40:15.107Z,11.23
2017-08-23T06:42:42.621Z,11.67
2017-08-23T06:45:10.127Z,11.32
2017-08-23T06:47:37.639Z,11.77
2017-08-23T06:50:05.840Z,10.45
2017-08-23T06:52:33.402Z,12.03
2017-08-23T06:55:00.903Z,10.77
2017-08-23T06:57:28.575Z,10.50
2017-08-23T06:59:56.101Z,11.17
2017-08-23T07:02:23.679Z,11.82
2017-08-23T07:04:51.306Z,10.93
2017-08-23T07:07:19.035Z,10.23
2017-08-23T07:09:46.548Z,9.73
2017-08-23T07:12:14.873Z,9.60
2017-08-23T07:14:42.402Z,11.77
2017-08-23T07:17:09.915Z,10.37
2017-08-23T07:19:38.416Z,9.68
2017-08-23T07:22:05.928Z,11.15
2017-08-23T07:24:33.440Z,10.00
2017-08-23T07:27:00.992Z,10.95
2017-08-23T07:29:28.498Z,9.67
2017-08-23T07:31:56.024Z,9.90
2017-08-23T07:34:24.545Z,9.73
2017-08-23T07:36:52.307Z,9.98
2017-08-23T07:39:19.816Z,8.50
2017-08-23T07:41:47.334Z,9.80
2017-08-23T07:44:14.872Z,9.47
2017-08-23T07:46:42.454Z,11.73
2017-08-23T07:49:09.971Z,9.40
2017-08-23T07:51:37.558Z,8.67
2017-08-23T07:54:05.880Z,9.10
2017-08-23T07:56:33.397Z,9.07
2017-08-23T07:59:00.921Z,9.10
2017-08-23T08:01:28.428Z,9.00
2017-08-23T08:03:55.943Z,8.43
2017-08-23T08:06:23.482Z,8.53
2017-08-23T08:08:51.314Z,9.25
2017-08-23T08:11:19.187Z,8.00
2017-08-23T08:13:46.824Z,8.80
2017-08-23T08:16:14.383Z,10.00
2017-08-23T08:18:42.046Z,8.10
2017-08-23T08:21:09.610Z,7.63
2017-08-23T08:23:37.243Z,8.90
2017-08-23T08:26:04.754Z,8.20
2017-08-23T08:28:33.687Z,9.13
2017-08-23T08:31:01.276Z,8.00
2017-08-23T08:33:28.835Z,9.00
2017-08-23T08:35:57.271Z,7.53
2017-08-23T08:38:24.808Z,9.27
2017-08-23T08:40:52.640Z,8.30
2017-08-23T08:43:20.167Z,7.70
2017-08-23T08:45:48.251Z,7.40
2017-08-23T08:48:17.125Z,7.35
2017-08-23T08:50:45.404Z,6.43
2017-08-23T08:53:12.940Z,7.60
2017-08-23T08:55:40.491Z,7.70
2017-08-23T08:58:08.967Z,7.40
2017-08-23T09:00:36.523Z,7.00
2017-08-23T09:03:04.362Z,7.43
2017-08-23T09:05:31.920Z,6.87
2017-08-23T09:07:59.428Z,7.63
2017-08-23T09:10:27.172Z,6.93
2017-08-23T09:12:55.256Z,6.93
2017-08-23T09:15:23.325Z,6.97
2017-08-23T09:17:50.876Z,6.60
2017-08-23T09:20:18.397Z,6.05
2017-08-23T09:22:45.912Z,5.93
2017-08-23T09:25:14.280Z,6.15
2017-08-23T09:27:42.190Z,5.23
2017-08-23T09:30:09.716Z,6.75
2017-08-23T09:32:37.240Z,4.97
2017-08-23T09:35:04.784Z,4.90
2017-08-23T09:37:32.304Z,5.30
2017-08-23T09:40:02.999Z,5.40
2017-08-23T09:42:31.152Z,4.80
2017-08-23T09:44:58.671Z,4.23
2017-08-23T09:47:26.265Z,5.05
2017-08-23T09:49:58.230Z,4.50
2017-08-23T09:52:25.759Z,5.10
2017-08-23T09:54:53.442Z,5.20
2017-08-23T09:57:20.962Z,6.07
2017-08-23T09:59:48.697Z,6.07
2017-08-23T10:02:16.264Z,4.70
2017-08-23T10:04:44.531Z,5.30
2017-08-23T10:07:12.032Z,4.60
2017-08-23T10:09:40.300Z,4.63
2017-08-23T10:12:08.102Z,4.90
2017-08-23T10:14:35.614Z,3.80
2017-08-23T10:17:03.956Z,6.07
2017-08-23T10:19:31.462Z,4.87
2017-08-23T10:22:04.079Z,5.00
2017-08-23T10:24:31.855Z,3.80
2017-08-23T10:26:59.359Z,4.25
2017-08-23T10:29:26.895Z,4.10
2017-08-23T10:31:54.433Z,4.50
2017-08-23T10:34:25.971Z,4.40
2017-08-23T10:36:53.472Z,4.53
2017-08-23T10:39:21.281Z,4.10
2017-08-23T10:41:48.770Z,3.93
2017-08-23T10:44:16.295Z,4.23
2017-08-23T10:46:44.281Z,4.57
2017-08-23T10:49:12.543Z,4.20
2017-08-23T10:51:40.929Z,4.35
2017-08-23T10:54:08.454Z,4.90
2017-08-23T10:56:40.154Z,4.70
2017-08-23T10:59:07.655Z,4.43
2017-08-23T11:01:35.178Z,4.28
2017-08-23T11:04:02.696Z,6.07
2017-08-23T11:06:34.291Z,5.40
2017-08-23T11:09:01.791Z,5.03
2017-08-23T11:11:30.110Z,4.20
2017-08-23T11:13:57.865Z,4.30
2017-08-23T11:16:26.970Z,5.50
2017-08-23T11:18:54.875Z,4.40
2017-08-23T11:21:25.154Z,4.53
2017-08-23T11:23:52.652Z,4.50
2017-08-23T11:26:20.208Z,4.30
2017-08-23T11:28:47.749Z,4.32
2017-08-23T11:31:15.295Z,3.57
2017-08-23T11:33:43.076Z,4.40
2017-08-23T11:36:10.594Z,4.30
2017-08-23T11:38:39.514Z,6.05
2017-08-23T11:41:07.043Z,4.93
2017-08-23T11:43:34.750Z,5.30
2017-08-23T11:46:02.296Z,5.45
2017-08-23T11:48:30.335Z,4.10
2017-08-23T11:50:58.133Z,4.72
2017-08-23T11:53:25.644Z,4.63
2017-08-23T11:55:53.184Z,4.43
2017-08-23T11:58:20.733Z,4.10
2017-08-23T12:00:48.239Z,4.03
2017-08-23T12:03:16.683Z,4.90
2017-08-23T12:05:44.183Z,4.57
2017-08-23T12:08:12.679Z,5.00
2017-08-23T12:10:40.190Z,4.00
2017-08-23T12:13:07.720Z,4.27
2017-08-23T12:15:36.196Z,4.45
2017-08-23T12:18:03.716Z,4.25
2017-08-23T12:20:31.456Z,4.43
2017-08-23T12:22:58.962Z,4.15
2017-08-23T12:25:26.490Z,3.70
2017-08-23T12:27:54.098Z,3.60
2017-08-23T12:30:21.607Z,3.90
2017-08-23T12:32:49.644Z,4.50
2017-08-23T12:35:17.152Z,4.40
2017-08-23T12:37:48.922Z,3.30
2017-08-23T12:40:16.465Z,4.33
2017-08-23T12:42:45.012Z,4.80
2017-08-23T12:45:12.560Z,3.90
2017-08-23T12:47:40.080Z,4.00
2017-08-23T12:50:07.607Z,5.10
2017-08-23T12:52:38.889Z,4.30
2017-08-23T12:55:06.567Z,4.50
2017-08-23T12:57:34.087Z,4.30
2017-08-23T13:00:01.672Z,3.50
2017-08-23T13:02:29.543Z,3.23
2017-08-23T13:04:57.105Z,4.23
2017-08-23T13:07:24.654Z,3.50
2017-08-23T13:09:55.686Z,5.33
2017-08-23T13:12:23.372Z,3.67
2017-08-23T13:14:50.903Z,3.53
2017-08-23T13:17:18.439Z,3.90
2017-08-23T13:19:45.945Z,3.67
2017-08-23T13:22:16.683Z,3.92
2017-08-23T13:24:44.237Z,4.17
2017-08-23T13:27:13.428Z,4.28
2017-08-23T13:29:41.069Z,6.20
2017-08-23T13:32:08.652Z,3.50
2017-08-23T13:34:36.156Z,4.03
2017-08-23T13:37:03.897Z,3.70
2017-08-23T13:39:31.411Z,3.30
2017-08-23T13:42:03.078Z,3.80
2017-08-23T13:44:30.927Z,4.00
2017-08-23T13:46:58.716Z,4.50
2017-08-23T13:49:27.250Z,3.83
2017-08-23T13:51:54.755Z,2.93
2017-08-23T13:54:22.291Z,4.70
2017-08-23T13:56:49.795Z,3.60
2017-08-23T13:59:20.285Z,4.07
2017-08-23T14:01:47.797Z,3.00
2017-08-23T14:04:15.315Z,4.25
2017-08-23T14:06:42.882Z,3.63
2017-08-23T14:09:11.530Z,3.30
2017-08-23T14:11:39.035Z,3.50
2017-08-23T14:14:06.591Z,4.43
2017-08-23T14:16:34.649Z,4.17
2017-08-23T14:19:02.148Z,3.90
2017-08-23T14:21:30.192Z,3.55
2017-08-23T14:23:57.823Z,4.07
2017-08-23T14:26:25.340Z,3.43
2017-08-23T14:28:53.007Z,4.90
2017-08-23T14:31:20.535Z,3.62
2017-08-23T14:33:48.195Z,4.13
2017-08-23T14:36:15.707Z,4.07
2017-08-23T14:38:48.105Z,4.37
2017-08-23T14:41:15.995Z,3.70
2017-08-23T14:43:44.427Z,4.72
2017-08-23T14:46:11.950Z,3.67
2017-08-23T14:48:39.640Z,4.63
2017-08-23T14:51:07.490Z,3.40
2017-08-23T14:53:35.883Z,3.57
2017-08-23T14:56:10.450Z,4.62
2017-08-23T14:58:38.145Z,3.63
2017-08-23T15:01:05.948Z,3.03
2017-08-23T15:03:34.367Z,4.00
2017-08-23T15:06:01.875Z,3.90
2017-08-23T15:08:30.155Z,3.57
2017-08-23T15:10:59.489Z,3.40
2017-08-23T15:13:27.315Z,3.77
2017-08-23T15:15:54.859Z,4.33
2017-08-23T15:18:22.375Z,3.45
2017-08-23T15:20:49.885Z,3.55
2017-08-23T15:23:18.071Z,3.62
2017-08-23T15:25:50.067Z,4.30
2017-08-23T15:28:17.575Z,5.17
2017-08-23T15:30:45.136Z,3.72
2017-08-23T15:33:13.076Z,5.28
2017-08-23T15:35:40.598Z,4.30
2017-08-23T15:38:08.153Z,4.25
2017-08-23T15:40:35.919Z,4.12
2017-08-23T15:43:03.429Z,3.35
2017-08-23T15:45:31.888Z,3.97
2017-08-23T15:47:59.433Z,3.93
2017-08-23T15:50:27.016Z,3.50
2017-08-23T15:52:54.859Z,3.43
2017-08-23T15:55:22.359Z,3.30
2017-08-23T15:57:50.038Z,4.22
2017-08-23T16:00:17.592Z,3.97
2017-08-23T16:02:45.294Z,3.70
2017-08-23T16:05:12.794Z,3.30
2017-08-23T16:07:40.357Z,4.07
2017-08-23T16:10:11.356Z,3.93
2017-08-23T16:12:39.122Z,4.13
2017-08-23T16:15:06.651Z,3.37
2017-08-23T16:17:35.220Z,4.90
2017-08-23T16:20:02.717Z,3.30
2017-08-23T16:22:30.523Z,4.25
2017-08-23T16:25:01.947Z,4.37
2017-08-23T16:27:29.815Z,3.15
2017-08-23T16:29:57.361Z,3.55
2017-08-23T16:32:24.958Z,3.40
2017-08-23T16:34:53.372Z,3.50
2017-08-23T16:37:21.637Z,3.23
2017-08-23T16:39:49.356Z,3.60
2017-08-23T16:42:20.584Z,3.80
2017-08-23T16:44:48.146Z,3.60
2017-08-23T16:47:15.701Z,3.83
2017-08-23T16:49:44.127Z,4.68
2017-08-23T16:52:11.636Z,3.37
2017-08-23T16:54:39.436Z,4.43
2017-08-23T16:57:07.423Z,3.70
2017-08-23T16:59:34.973Z,4.13
2017-08-23T17:02:03.566Z,3.87
2017-08-23T17:04:31.062Z,4.22
2017-08-23T17:06:58.606Z,3.75
2017-08-23T17:09:26.107Z,4.47
2017-08-23T17:11:53.608Z,4.30
2017-08-23T17:14:21.207Z,4.03
2017-08-23T17:16:48.752Z,3.67
2017-08-23T17:19:17.055Z,3.90
2017-08-23T17:21:44.604Z,4.10
2017-08-23T17:24:12.132Z,4.00
2017-08-23T17:26:47.588Z,4.00
2017-08-23T17:29:15.175Z,4.20
2017-08-23T17:31:42.686Z,3.77
2017-08-23T17:34:10.207Z,4.40
2017-08-23T17:36:37.788Z,4.70
2017-08-23T17:39:05.288Z,4.87
2017-08-23T17:41:32.810Z,4.50
2017-08-23T17:44:01.283Z,4.10
2017-08-23T17:46:29.282Z,3.90
2017-08-23T17:48:56.788Z,3.90
2017-08-23T17:51:24.435Z,5.63
2017-08-23T17:53:52.154Z,5.40
2017-08-23T17:56:20.567Z,4.13
2017-08-23T17:58:48.084Z,4.50
2017-08-23T18:01:16.083Z,5.13
2017-08-23T18:03:43.866Z,4.80
2017-08-23T18:06:11.372Z,4.80
2017-08-23T18:08:39.957Z,4.87
2017-08-23T18:11:07.520Z,5.90
2017-08-23T18:13:38.363Z,5.78
2017-08-23T18:16:05.862Z,6.00
2017-08-23T18:18:34.330Z,4.75
2017-08-23T18:21:01.844Z,5.13
2017-08-23T18:23:29.652Z,5.57
2017-08-23T18:25:57.165Z,5.18
2017-08-23T18:28:24.667Z,4.63
2017-08-23T18:30:52.188Z,6.12
2017-08-23T18:33:19.776Z,5.50
2017-08-23T18:35:48.030Z,4.97
2017-08-23T18:38:15.912Z,6.00
2017-08-23T18:40:43.482Z,6.30
2017-08-23T18:43:10.982Z,5.50
2017-08-23T18:45:42.621Z,6.10
2017-08-23T18:48:10.182Z,6.53
2017-08-23T18:50:38.183Z,5.72
2017-08-23T18:53:05.688Z,7.07
2017-08-23T18:55:33.628Z,5.37
2017-08-23T18:58:13.428Z,6.40
2017-08-23T19:00:40.935Z,6.20
2017-08-23T19:03:08.443Z,5.28
2017-08-23T19:05:35.998Z,5.20
2017-08-23T19:08:03.515Z,5.97
2017-08-23T19:10:31.029Z,5.47
2017-08-23T19:13:01.549Z,5.87
2017-08-23T19:15:29.354Z,5.40
2017-08-23T19:17:57.072Z,5.63
2017-08-23T19:20:24.849Z,7.00
2017-08-23T19:22:52.448Z,6.40
2017-08-23T19:25:20.126Z,7.33
2017-08-23T19:27:47.767Z,6.72
2017-08-23T19:30:15.301Z,9.27
2017-08-23T19:32:46.419Z,8.07
2017-08-23T19:35:13.927Z,6.67
2017-08-23T19:37:41.865Z,8.00
2017-08-23T19:40:09.384Z,11.07
2017-08-23T19:42:37.078Z,9.30
2017-08-23T19:45:08.004Z,7.10
2017-08-23T19:47:35.785Z,6.78
2017-08-23T19:50:03.291Z,6.27
2017-08-23T19:52:31.046Z,8.00
2017-08-23T19:54:58.564Z,7.07
2017-08-23T19:57:26.209Z,5.90
2017-08-23T19:59:53.977Z,7.37
2017-08-23T20:02:21.484Z,6.93
2017-08-23T20:04:49.564Z,6.30
2017-08-23T20:07:17.079Z,5.87
2017-08-23T20:09:45.659Z,6.82
2017-08-23T20:12:13.227Z,8.85
2017-08-23T20:14:40.804Z,6.67
2017-08-23T20:17:08.356Z,7.07
2017-08-23T20:19:35.855Z,7.20
2017-08-23T20:22:03.887Z,8.45
2017-08-23T20:24:31.607Z,7.05
2017-08-23T20:26:59.120Z,9.17
2017-08-23T20:29:30.527Z,7.27
2017-08-23T20:31:59.365Z,6.60
2017-08-23T20:34:27.230Z,6.97
2017-08-23T20:36:54.743Z,8.27
2017-08-23T20:39:22.267Z,7.63
2017-08-23T20:41:49.825Z,6.53
2017-08-23T20:44:21.179Z,7.12
2017-08-23T20:46:49.128Z,8.63
2017-08-23T20:49:16.683Z,9.07
2017-08-23T20:51:44.235Z,8.37
2017-08-23T20:54:11.755Z,8.95
2017-08-23T20:56:39.265Z,9.20
2017-08-23T20:59:08.279Z,10.82
2017-08-23T21:01:35.925Z,9.60
2017-08-23T21:04:03.440Z,10.13
2017-08-23T21:06:30.967Z,11.23
2017-08-23T21:08:58.648Z,14.20
2017-08-23T21:11:26.845Z,14.40
2017-08-23T21:13:54.366Z,14.43
2017-08-23T21:16:22.758Z,14.70
2017-08-23T21:18:50.336Z,14.80
2017-08-23T21:21:17.848Z,14.48
2017-08-23T21:23:46.782Z,15.88
2017-08-23T21:26:14.295Z,14.20
2017-08-23T21:28:41.832Z,15.10
2017-08-23T21:31:10.468Z,15.57
2017-08-23T21:33:37.981Z,15.10
2017-08-23T21:36:05.940Z,15.90
2017-08-23T21:38:33.445Z,13.70
2017-08-23T21:41:01.875Z,12.60
2017-08-23T21:43:29.612Z,12.77
2017-08-23T21:45:57.123Z,14.30
2017-08-23T21:48:24.664Z,13.70
2017-08-23T21:50:52.213Z,12.70
2017-08-23T21:53:19.837Z,12.80
2017-08-23T21:55:47.389Z,12.83
2017-08-23T21:58:15.005Z,13.50
2017-08-23T22:00:43.435Z,13.15
2017-08-23T22:03:10.939Z,13.03
2017-08-23T22:05:38.499Z,12.57
2017-08-23T22:08:06.018Z,12.40
2017-08-23T22:10:33.531Z,12.03
2017-08-23T22:13:01.189Z,11.93
2017-08-23T22:15:29.646Z,12.70
2017-08-23T22:17:57.153Z,12.13
2017-08-23T22:20:25.085Z,11.67
2017-08-23T22:22:52.719Z,11.20
2017-08-23T22:25:20.307Z,11.57
2017-08-23T22:27:47.810Z,10.90
2017-08-23T22:30:16.502Z,11.77
2017-08-23T22:32:44.008Z,12.03
2017-08-23T22:35:11.984Z,10.47
2017-08-23T22:37:39.551Z,12.20
2017-08-23T22:40:07.154Z,12.00
2017-08-23T22:42:35.942Z,12.50
2017-08-23T22:45:03.805Z,11.13
2017-08-23T22:47:35.467Z,11.40
2017-08-23T22:50:02.979Z,12.13
2017-08-23T22:52:31.315Z,11.93
2017-08-23T22:54:59.085Z,13.63
2017-08-23T22:57:26.626Z,11.80
2017-08-23T22:59:55.120Z,11.87
2017-08-23T23:02:22.643Z,12.30
2017-08-23T23:04:50.187Z,12.00
2017-08-23T23:07:17.757Z,11.50
2017-08-23T23:09:45.595Z,12.50
2017-08-23T23:12:14.042Z,11.55
2017-08-23T23:14:41.547Z,12.20
2017-08-23T23:17:14.159Z,11.37
2017-08-23T23:19:41.707Z,10.00
2017-08-23T23:22:09.216Z,11.37
2017-08-23T23:24:36.727Z,11.80
2017-08-23T23:27:04.300Z,10.88
2017-08-23T23:29:32.143Z,10.73
2017-08-23T23:31:59.667Z,10.70
2017-08-23T23:34:28.259Z,10.02
2017-08-23T23:36:55.776Z,10.10
2017-08-23T23:39:23.295Z,10.13
2017-08-23T23:41:51.571Z,10.80
2017-08-23T23:44:19.851Z,9.77
2017-08-23T23:46:48.152Z,9.57
2017-08-23T23:49:15.708Z,9.85
2017-08-23T23:51:43.384Z,10.63
2017-08-23T23:54:11.016Z,10.65
2017-08-23T23:56:38.532Z,8.98
2017-08-23T23:59:07.596Z,10.50
